createdAt,value
2022-07-26T00:00:35.628Z,97827.66
2022-07-26T00:03:02.759Z,97824.88
2022-07-26T00:05:31.115Z,97824.88
2022-07-26T00:08:11.115Z,97814.94
2022-07-26T00:10:39.929Z,97813.28
2022-07-26T00:13:07.234Z,97811.34
2022-07-26T00:15:34.586Z,97804.97
2022-07-26T00:18:01.940Z,97818.03
2022-07-26T00:20:29.227Z,97805.63
2022-07-26T00:22:56.744Z,97810.00
2022-07-26T00:25:23.957Z,97806.78
2022-07-26T00:27:51.224Z,97808.72
2022-07-26T00:30:18.467Z,97809.53
2022-07-26T00:32:45.725Z,97817.03
2022-07-26T00:35:13.508Z,97812.63
2022-07-26T00:37:40.889Z,97811.81
2022-07-26T00:40:08.782Z,97809.84
2022-07-26T00:42:36.383Z,97815.72
2022-07-26T00:45:05.190Z,97813.78
2022-07-26T00:47:32.644Z,97807.75
2022-07-26T00:49:59.798Z,97801.38
2022-07-26T00:52:27.017Z,97801.38
2022-07-26T00:54:56.426Z,97798.09
2022-07-26T00:57:23.636Z,97794.69
2022-07-26T00:59:51.093Z,97797.78
2022-07-26T01:02:18.508Z,97786.69
2022-07-26T01:04:45.777Z,97788.66
2022-07-26T01:07:15.034Z,97783.09
2022-07-26T01:09:43.130Z,97775.09
2022-07-26T01:12:10.915Z,97772.66
2022-07-26T01:14:38.482Z,97771.53
2022-07-26T01:17:05.856Z,97763.19
2022-07-26T01:19:33.016Z,97765.47
2022-07-26T01:22:00.491Z,97754.38
2022-07-26T01:24:27.805Z,97756.00
2022-07-26T01:26:56.062Z,97748.81
2022-07-26T01:29:24.138Z,97747.16
2022-07-26T01:32:04.466Z,97743.56
2022-07-26T01:34:31.684Z,97744.72
2022-07-26T01:36:58.968Z,97739.97
2022-07-26T01:39:26.122Z,97747.16
2022-07-26T01:41:53.889Z,97741.59
2022-07-26T01:44:20.932Z,97728.88
2022-07-26T01:46:48.026Z,97727.28
2022-07-26T01:49:15.157Z,97733.28
2022-07-26T01:51:42.278Z,97726.91
2022-07-26T01:54:09.791Z,97733.63
2022-07-26T01:56:37.291Z,97732.81
2022-07-26T01:59:04.584Z,97731.66
2022-07-26T02:01:38.398Z,97725.63
2022-07-26T02:04:08.881Z,97727.28
2022-07-26T02:06:37.170Z,97721.22
2022-07-26T02:09:06.507Z,97713.72
2022-07-26T02:11:34.857Z,97707.34
2022-07-26T02:14:02.663Z,97718.44
2022-07-26T02:16:29.819Z,97711.25
2022-07-26T02:18:56.917Z,97716.03
2022-07-26T02:21:23.916Z,97713.25
2022-07-26T02:23:51.012Z,97713.25
2022-07-26T02:26:18.078Z,97709.66
2022-07-26T02:28:45.085Z,97706.88
2022-07-26T02:31:15.857Z,97709.97
2022-07-26T02:33:43.238Z,97708.84
2022-07-26T02:36:10.277Z,97696.91
2022-07-26T02:38:37.361Z,97697.72
2022-07-26T02:41:06.538Z,97691.38
2022-07-26T02:43:33.640Z,97691.38
2022-07-26T02:46:01.797Z,97694.47
2022-07-26T02:48:32.709Z,97683.38
2022-07-26T02:51:00.009Z,97684.19
2022-07-26T02:53:27.198Z,97692.50
2022-07-26T02:55:54.227Z,97680.13
2022-07-26T02:58:21.928Z,97669.84
2022-07-26T03:00:50.160Z,97678.16
2022-07-26T03:03:17.281Z,97678.16
2022-07-26T03:05:44.694Z,97674.56
2022-07-26T03:08:11.749Z,97676.53
2022-07-26T03:10:40.247Z,97670.16
2022-07-26T03:13:07.541Z,97668.22
2022-07-26T03:15:34.674Z,97670.97
2022-07-26T03:18:02.381Z,97665.75
2022-07-26T03:20:29.506Z,97662.16
2022-07-26T03:22:56.565Z,97665.75
2022-07-26T03:25:23.678Z,97671.31
2022-07-26T03:27:50.699Z,97662.16
2022-07-26T03:30:24.526Z,97661.34
2022-07-26T03:32:54.004Z,97661.69
2022-07-26T03:35:21.084Z,97660.53
2022-07-26T03:37:48.156Z,97667.25
2022-07-26T03:40:18.317Z,97659.75
2022-07-26T03:42:46.131Z,97663.28
2022-07-26T03:45:14.167Z,97652.19
2022-07-26T03:47:41.307Z,97665.59
2022-07-26T03:50:11.252Z,97660.06
2022-07-26T03:52:38.328Z,97656.16
2022-07-26T03:55:26.614Z,97655.31
2022-07-26T03:57:53.830Z,97649.78
2022-07-26T04:00:20.974Z,97651.72
2022-07-26T04:02:48.071Z,97650.59
2022-07-26T04:05:15.193Z,97648.16
2022-07-26T04:07:52.746Z,97654.81
2022-07-26T04:10:21.052Z,97654.81
2022-07-26T04:12:48.153Z,97657.59
2022-07-26T04:15:19.354Z,97666.28
2022-07-26T04:17:48.556Z,97660.72
2022-07-26T04:20:16.018Z,97645.53
2022-07-26T04:22:43.261Z,97660.72
2022-07-26T04:25:10.462Z,97655.19
2022-07-26T04:27:38.010Z,97657.94
2022-07-26T04:30:09.604Z,97662.69
2022-07-26T04:32:39.556Z,97660.72
2022-07-26T04:35:06.811Z,97659.09
2022-07-26T04:37:39.986Z,97649.63
2022-07-26T04:40:07.641Z,97648.81
2022-07-26T04:42:34.658Z,97645.22
2022-07-26T04:45:07.447Z,97649.63
2022-07-26T04:47:35.052Z,97648.00
2022-07-26T04:50:02.522Z,97653.53
2022-07-26T04:52:29.549Z,97653.53
2022-07-26T04:54:56.599Z,97654.34
2022-07-26T04:57:23.891Z,97661.03
2022-07-26T05:00:09.863Z,97668.53
2022-07-26T05:02:38.082Z,97672.13
2022-07-26T05:05:06.195Z,97679.63
2022-07-26T05:07:43.235Z,97693.19
2022-07-26T05:10:10.627Z,97689.59
2022-07-26T05:12:37.751Z,97696.28
2022-07-26T05:15:05.269Z,97709.81
2022-07-26T05:17:32.384Z,97720.09
2022-07-26T05:20:03.621Z,97730.38
2022-07-26T05:22:30.769Z,97726.47
2022-07-26T05:24:57.817Z,97722.06
2022-07-26T05:27:24.840Z,97751.75
2022-07-26T05:29:51.886Z,97752.56
2022-07-26T05:32:18.974Z,97752.56
2022-07-26T05:34:46.045Z,97750.59
2022-07-26T05:37:13.193Z,97743.41
2022-07-26T05:39:40.240Z,97737.88
2022-07-26T05:42:07.313Z,97741.47
2022-07-26T05:44:34.444Z,97739.81
2022-07-26T05:47:01.459Z,97727.91
2022-07-26T05:49:28.492Z,97751.75
2022-07-26T05:52:08.134Z,97762.84
2022-07-26T05:54:35.547Z,97752.06
2022-07-26T05:57:02.706Z,97762.00
2022-07-26T05:59:29.813Z,97765.91
2022-07-26T06:01:56.938Z,97754.81
2022-07-26T06:04:27.433Z,97748.47
2022-07-26T06:06:55.225Z,97761.19
2022-07-26T06:09:25.159Z,97754.66
2022-07-26T06:11:52.287Z,97754.81
2022-07-26T06:14:20.071Z,97759.25
2022-07-26T06:16:47.749Z,97759.25
2022-07-26T06:19:14.870Z,97768.38
2022-07-26T06:21:42.962Z,97780.13
2022-07-26T06:24:10.625Z,97776.69
2022-07-26T06:26:37.909Z,97782.56
2022-07-26T06:29:04.988Z,97790.56
2022-07-26T06:31:32.112Z,97788.94
2022-07-26T06:33:59.237Z,97797.25
2022-07-26T06:36:30.247Z,97801.66
2022-07-26T06:38:58.118Z,97801.66
2022-07-26T06:41:25.155Z,97799.72
2022-07-26T06:43:52.232Z,97796.13
2022-07-26T06:46:21.326Z,97800.53
2022-07-26T06:48:53.097Z,97816.03
2022-07-26T06:51:24.265Z,97817.16
2022-07-26T06:53:51.337Z,97815.53
2022-07-26T06:56:18.845Z,97818.81
2022-07-26T06:58:46.041Z,97825.47
2022-07-26T07:01:13.207Z,97833.81
2022-07-26T07:04:00.568Z,97842.94
2022-07-26T07:06:27.630Z,97853.22
2022-07-26T07:08:54.700Z,97862.66
2022-07-26T07:11:22.346Z,97870.69
2022-07-26T07:13:49.704Z,97870.69
2022-07-26T07:16:16.843Z,97875.41
2022-07-26T07:18:44.007Z,97887.31
2022-07-26T07:21:11.017Z,97907.56
2022-07-26T07:23:38.089Z,97916.66
2022-07-26T07:26:05.148Z,97915.88
2022-07-26T07:28:34.032Z,97929.41
2022-07-26T07:31:01.627Z,97933.00
2022-07-26T07:33:36.729Z,97937.41
2022-07-26T07:36:17.426Z,97948.50
2022-07-26T07:38:48.104Z,97944.91
2022-07-26T07:41:15.209Z,97947.69
2022-07-26T07:43:42.245Z,97942.97
2022-07-26T07:46:10.726Z,97949.63
2022-07-26T07:48:41.096Z,97948.00
2022-07-26T07:51:15.992Z,97957.97
2022-07-26T07:53:43.189Z,97962.69
2022-07-26T07:56:23.884Z,97951.94
2022-07-26T07:58:52.175Z,97967.41
2022-07-26T08:01:19.499Z,97972.97
2022-07-26T08:03:50.410Z,97967.41
2022-07-26T08:06:17.985Z,97978.50
2022-07-26T08:08:45.074Z,97980.16
2022-07-26T08:11:16.267Z,97979.31
2022-07-26T08:13:47.797Z,97984.06
2022-07-26T08:16:15.315Z,97983.22
2022-07-26T08:18:56.117Z,97981.63
2022-07-26T08:21:23.988Z,97988.78
2022-07-26T08:23:53.454Z,97994.66
2022-07-26T08:26:20.594Z,97999.09
2022-07-26T08:28:48.315Z,98008.53
2022-07-26T08:31:16.785Z,98007.41
2022-07-26T08:33:46.294Z,98007.41
2022-07-26T08:36:15.577Z,98017.69
2022-07-26T08:38:43.334Z,98012.94
2022-07-26T08:41:10.363Z,98008.53
2022-07-26T08:43:45.223Z,98010.19
2022-07-26T08:46:27.023Z,98010.97
2022-07-26T08:48:58.040Z,98010.19
2022-07-26T08:51:25.647Z,98025.19
2022-07-26T08:54:04.272Z,98015.72
2022-07-26T08:56:34.337Z,98014.56
2022-07-26T08:59:06.983Z,98018.50
2022-07-26T09:01:34.524Z,98021.28
2022-07-26T09:04:30.288Z,98019.63
2022-07-26T09:07:03.134Z,98016.84
2022-07-26T09:09:30.559Z,98018.81
2022-07-26T09:11:57.827Z,98018.81
2022-07-26T09:14:38.579Z,98021.88
2022-07-26T09:17:06.447Z,98018.00
2022-07-26T09:19:34.834Z,98031.84
2022-07-26T09:22:10.538Z,98042.94
2022-07-26T09:24:47.866Z,98043.78
2022-07-26T09:27:16.669Z,98049.63
2022-07-26T09:29:44.504Z,98056.00
2022-07-26T09:32:17.271Z,98049.63
2022-07-26T09:34:58.332Z,98056.94
2022-07-26T09:37:39.805Z,98056.31
2022-07-26T09:40:08.657Z,98052.41
2022-07-26T09:42:35.794Z,98066.25
2022-07-26T09:45:02.930Z,98060.72
2022-07-26T09:47:39.335Z,98071.81
2022-07-26T09:50:13.783Z,98075.72
2022-07-26T09:52:41.141Z,98077.38
2022-07-26T09:55:09.341Z,98082.09
2022-07-26T09:57:36.490Z,98086.81
2022-07-26T10:00:05.997Z,98091.22
2022-07-26T10:02:35.140Z,98100.69
2022-07-26T10:05:02.320Z,98097.91
2022-07-26T10:07:29.339Z,98093.19
2022-07-26T10:10:04.826Z,98097.91
2022-07-26T10:12:32.784Z,98104.28
2022-07-26T10:14:59.972Z,98096.28
2022-07-26T10:17:31.758Z,98102.66
2022-07-26T10:20:09.221Z,98111.78
2022-07-26T10:22:45.551Z,98101.84
2022-07-26T10:25:18.658Z,98112.94
2022-07-26T10:27:46.505Z,98121.25
2022-07-26T10:30:16.533Z,98118.47
2022-07-26T10:32:52.820Z,98111.28
2022-07-26T10:35:36.510Z,98118.78
2022-07-26T10:38:04.557Z,98128.75
2022-07-26T10:40:31.653Z,98112.41
2022-07-26T10:43:38.921Z,98120.75
2022-07-26T10:46:18.207Z,98112.41
2022-07-26T10:48:57.727Z,98118.28
2022-07-26T10:51:29.753Z,98125.47
2022-07-26T10:54:03.918Z,98124.63
2022-07-26T10:56:33.396Z,98124.63
2022-07-26T10:59:01.447Z,98128.56
2022-07-26T11:01:41.155Z,98125.81
2022-07-26T11:04:23.958Z,98142.75
2022-07-26T11:06:50.957Z,98134.44
2022-07-26T11:09:21.228Z,98133.28
2022-07-26T11:11:48.920Z,98138.03
2022-07-26T11:14:17.523Z,98139.66
2022-07-26T11:16:46.821Z,98138.84
2022-07-26T11:19:21.282Z,98133.28
2022-07-26T11:21:54.704Z,98131.34
2022-07-26T11:24:22.363Z,98131.66
2022-07-26T11:26:49.470Z,98130.00
2022-07-26T11:29:17.053Z,98138.03
2022-07-26T11:31:51.207Z,98139.16
2022-07-26T11:34:26.225Z,98139.16
2022-07-26T11:36:56.336Z,98141.09
2022-07-26T11:39:33.113Z,98149.41
2022-07-26T11:42:11.909Z,98144.69
2022-07-26T11:44:39.103Z,98136.38
2022-07-26T11:47:14.301Z,98135.56
2022-07-26T11:50:01.006Z,98138.31
2022-07-26T11:52:32.339Z,98149.41
2022-07-26T11:54:59.687Z,98145.81
2022-07-26T11:57:30.781Z,98140.28
2022-07-26T11:59:58.222Z,98143.03
2022-07-26T12:02:25.267Z,98127.53
2022-07-26T12:05:13.280Z,98127.53
2022-07-26T12:07:40.485Z,98126.75
2022-07-26T12:10:07.986Z,98125.94
2022-07-26T12:12:35.669Z,98131.47
2022-07-26T12:15:04.741Z,98140.91
2022-07-26T12:17:35.188Z,98129.81
2022-07-26T12:20:13.328Z,98137.00
2022-07-26T12:22:40.402Z,98134.84
2022-07-26T12:25:08.372Z,98143.16
2022-07-26T12:27:35.396Z,98138.44
2022-07-26T12:30:02.621Z,98148.72
2022-07-26T12:32:37.018Z,98146.28
2022-07-26T12:35:14.089Z,98148.22
2022-07-26T12:37:47.148Z,98153.44
2022-07-26T12:40:21.507Z,98158.19
2022-07-26T12:42:58.640Z,98158.19
2022-07-26T12:45:32.149Z,98155.91
2022-07-26T12:48:00.696Z,98163.09
2022-07-26T12:50:28.666Z,98167.00
2022-07-26T12:53:06.340Z,98170.59
2022-07-26T12:55:33.518Z,98172.25
2022-07-26T12:58:01.002Z,98172.53
2022-07-26T13:00:29.627Z,98178.09
2022-07-26T13:02:57.161Z,98181.38
2022-07-26T13:05:24.299Z,98176.97
2022-07-26T13:07:54.553Z,98178.91
2022-07-26T13:10:32.941Z,98180.03
2022-07-26T13:13:00.496Z,98188.38
2022-07-26T13:15:35.214Z,98185.59
2022-07-26T13:18:05.860Z,98178.91
2022-07-26T13:20:32.917Z,98175.63
2022-07-26T13:22:59.970Z,98184.47
2022-07-26T13:25:30.019Z,98185.28
2022-07-26T13:28:05.902Z,98176.25
2022-07-26T13:30:33.065Z,98178.22
2022-07-26T13:33:00.141Z,98181.00
2022-07-26T13:35:27.196Z,98174.94
2022-07-26T13:37:54.225Z,98189.31
2022-07-26T13:40:21.828Z,98187.06
2022-07-26T13:42:50.338Z,98185.94
2022-07-26T13:45:17.393Z,98181.50
2022-07-26T13:47:44.466Z,98187.53
2022-07-26T13:50:11.491Z,98188.38
2022-07-26T13:52:38.725Z,98197.50
2022-07-26T13:55:06.764Z,98194.72
2022-07-26T13:57:47.190Z,98189.19
2022-07-26T14:00:21.111Z,98188.38
2022-07-26T14:02:48.327Z,98193.09
2022-07-26T14:05:15.795Z,98190.00
2022-07-26T14:07:43.774Z,98193.09
2022-07-26T14:10:10.981Z,98188.38
2022-07-26T14:12:38.546Z,98196.38
2022-07-26T14:15:11.505Z,98196.69
2022-07-26T14:17:40.169Z,98200.28
2022-07-26T14:20:07.641Z,98190.31
2022-07-26T14:22:34.656Z,98180.38
2022-07-26T14:25:01.714Z,98179.56
2022-07-26T14:27:28.861Z,98180.38
2022-07-26T14:29:55.913Z,98189.81
2022-07-26T14:32:23.001Z,98197.03
2022-07-26T14:34:51.273Z,98196.19
2022-07-26T14:37:40.713Z,98195.38
2022-07-26T14:40:07.472Z,98206.47
2022-07-26T14:42:34.530Z,98202.34
2022-07-26T14:45:01.595Z,98202.03
2022-07-26T14:47:28.641Z,98203.16
2022-07-26T14:49:55.706Z,98198.44
2022-07-26T14:52:22.721Z,98204.00
2022-07-26T14:54:49.760Z,98200.91
2022-07-26T14:57:16.842Z,98206.47
2022-07-26T14:59:43.910Z,98209.53
2022-07-26T15:02:11.013Z,98220.31
2022-07-26T15:04:38.171Z,98212.31
2022-07-26T15:07:05.242Z,98219.19
2022-07-26T15:09:32.328Z,98220.31
2022-07-26T15:11:59.639Z,98215.91
2022-07-26T15:14:26.691Z,98211.19
2022-07-26T15:16:53.799Z,98216.44
2022-07-26T15:19:25.350Z,98212.00
2022-07-26T15:21:54.083Z,98208.41
2022-07-26T15:24:21.215Z,98199.28
2022-07-26T15:26:50.710Z,98208.41
2022-07-26T15:29:17.778Z,98206.47
2022-07-26T15:31:45.030Z,98199.28
2022-07-26T15:34:12.572Z,98207.28
2022-07-26T15:36:39.816Z,98208.09
2022-07-26T15:39:16.683Z,98199.28
2022-07-26T15:41:45.587Z,98200.09
2022-07-26T15:44:16.953Z,98205.63
2022-07-26T15:46:46.177Z,98204.81
2022-07-26T15:49:15.651Z,98199.28
2022-07-26T15:51:43.041Z,98196.50
2022-07-26T15:54:11.166Z,98196.50
2022-07-26T15:56:38.555Z,98196.81
2022-07-26T15:59:08.687Z,98198.75
2022-07-26T16:01:36.646Z,98200.41
2022-07-26T16:04:05.360Z,98195.97
2022-07-26T16:06:35.225Z,98187.16
2022-07-26T16:09:19.484Z,98189.63
2022-07-26T16:11:47.339Z,98184.88
2022-07-26T16:14:15.832Z,98192.09
2022-07-26T16:16:43.019Z,98182.13
2022-07-26T16:19:11.118Z,98189.31
2022-07-26T16:21:38.660Z,98189.31
2022-07-26T16:24:07.382Z,98192.09
2022-07-26T16:26:35.376Z,98196.81
2022-07-26T16:29:02.598Z,98192.41
2022-07-26T16:31:30.161Z,98199.09
2022-07-26T16:33:57.248Z,98200.72
2022-07-26T16:36:24.294Z,98195.50
2022-07-26T16:38:51.335Z,98193.53
2022-07-26T16:41:18.418Z,98198.25
2022-07-26T16:43:45.574Z,98201.03
2022-07-26T16:46:12.715Z,98197.44
2022-07-26T16:48:39.854Z,98201.34
2022-07-26T16:51:07.036Z,98191.06
2022-07-26T16:53:34.130Z,98197.13
2022-07-26T16:56:01.187Z,98199.09
2022-07-26T16:58:28.217Z,98201.53
2022-07-26T17:00:55.461Z,98199.91
2022-07-26T17:03:23.879Z,98200.72
2022-07-26T17:05:51.049Z,98202.69
2022-07-26T17:08:18.209Z,98203.81
2022-07-26T17:10:45.317Z,98206.06
2022-07-26T17:13:12.334Z,98205.22
2022-07-26T17:15:39.448Z,98202.81
2022-07-26T17:18:06.495Z,98202.81
2022-07-26T17:20:33.579Z,98204.75
2022-07-26T17:23:00.621Z,98209.16
2022-07-26T17:25:27.707Z,98197.25
2022-07-26T17:27:54.805Z,98205.88
2022-07-26T17:30:21.861Z,98207.81
2022-07-26T17:32:49.020Z,98199.50
2022-07-26T17:35:16.198Z,98195.59
2022-07-26T17:37:43.292Z,98197.88
2022-07-26T17:40:10.702Z,98205.38
2022-07-26T17:42:38.286Z,98204.56
2022-07-26T17:45:06.031Z,98210.94
2022-07-26T17:47:33.158Z,98202.91
2022-07-26T17:52:49.058Z,98210.09
2022-07-26T17:55:16.224Z,98211.22
2022-07-26T17:57:43.309Z,98206.00
2022-07-26T18:00:10.785Z,98200.97
2022-07-26T18:02:37.966Z,98199.31
2022-07-26T18:05:05.321Z,98201.78
2022-07-26T18:07:32.471Z,98197.38
2022-07-26T18:09:59.530Z,98194.59
2022-07-26T18:12:26.597Z,98183.50
2022-07-26T18:14:53.619Z,98187.41
2022-07-26T18:17:20.667Z,98190.19
2022-07-26T18:19:47.768Z,98184.97
2022-07-26T18:22:14.859Z,98191.31
2022-07-26T18:24:42.010Z,98182.19
2022-07-26T18:27:09.704Z,98182.50
2022-07-26T18:29:37.208Z,98183.31
2022-07-26T18:32:04.391Z,98194.41
2022-07-26T18:34:31.444Z,98197.19
2022-07-26T18:36:58.514Z,98203.03
2022-07-26T18:39:25.498Z,98207.44
2022-07-26T18:41:59.948Z,98211.34
2022-07-26T18:44:27.069Z,98205.31
2022-07-26T18:46:56.494Z,98212.47
2022-07-26T18:49:25.764Z,98216.88
2022-07-26T18:52:04.290Z,98212.47
2022-07-26T18:54:35.876Z,98222.94
2022-07-26T18:57:03.039Z,98216.59
2022-07-26T18:59:31.363Z,98221.00
2022-07-26T19:02:00.202Z,98222.13
2022-07-26T19:04:27.550Z,98219.66
2022-07-26T19:06:55.030Z,98221.31
2022-07-26T19:09:22.084Z,98226.84
2022-07-26T19:11:49.137Z,98226.03
2022-07-26T19:14:16.222Z,98227.97
2022-07-26T19:16:43.247Z,98225.19
2022-07-26T19:19:10.608Z,98233.53
2022-07-26T19:21:38.404Z,98239.06
2022-07-26T19:24:05.960Z,98236.00
2022-07-26T19:26:33.030Z,98239.88
2022-07-26T19:29:00.098Z,98228.28
2022-07-26T19:31:27.165Z,98240.53
2022-07-26T19:33:54.289Z,98240.19
2022-07-26T19:36:26.457Z,98246.06
2022-07-26T19:38:55.966Z,98239.19
2022-07-26T19:41:23.015Z,98238.34
2022-07-26T19:43:50.067Z,98232.81
2022-07-26T19:46:17.262Z,98236.09
2022-07-26T19:48:44.435Z,98232.50
2022-07-26T19:51:11.583Z,98232.81
2022-07-26T19:53:38.597Z,98235.88
2022-07-26T19:56:06.709Z,98232.59
2022-07-26T19:58:33.874Z,98240.41
2022-07-26T20:01:01.074Z,98243.97
2022-07-26T20:03:28.233Z,98233.22
2022-07-26T20:05:57.032Z,98236.81
2022-07-26T20:08:24.744Z,98240.41
2022-07-26T20:10:51.780Z,98241.53
2022-07-26T20:13:19.142Z,98236.59
2022-07-26T20:15:47.609Z,98232.19
2022-07-26T20:18:14.592Z,98241.00
2022-07-26T20:20:42.764Z,98245.72
2022-07-26T20:23:11.236Z,98241.00
2022-07-26T20:25:38.297Z,98243.28
2022-07-26T20:28:05.647Z,98238.88
2022-07-26T20:30:32.899Z,98238.06
2022-07-26T20:32:59.998Z,98235.56
2022-07-26T20:35:27.077Z,98238.34
2022-07-26T20:37:54.123Z,98242.28
2022-07-26T20:40:21.481Z,98238.97
2022-07-26T20:42:50.303Z,98239.59
2022-07-26T20:45:18.022Z,98235.50
2022-07-26T20:47:45.067Z,98245.16
2022-07-26T20:50:12.683Z,98235.19
2022-07-26T20:52:39.901Z,98243.50
2022-07-26T20:55:07.669Z,98252.13
2022-07-26T20:57:34.774Z,98252.13
2022-07-26T21:00:01.831Z,98249.97
2022-07-26T21:02:29.016Z,98253.75
2022-07-26T21:04:56.134Z,98252.13
2022-07-26T21:07:24.507Z,98252.13
2022-07-26T21:10:11.565Z,98258.00
2022-07-26T21:12:38.622Z,98256.34
2022-07-26T21:15:06.327Z,98268.53
2022-07-26T21:17:34.812Z,98271.63
2022-07-26T21:20:03.144Z,98253.16
2022-07-26T21:22:30.226Z,98267.81
2022-07-26T21:24:57.279Z,98272.03
2022-07-26T21:27:24.283Z,98271.22
2022-07-26T21:29:51.402Z,98269.06
2022-07-26T21:32:18.445Z,98268.75
2022-07-26T21:34:45.574Z,98272.66
2022-07-26T21:37:12.602Z,98274.28
2022-07-26T21:39:39.638Z,98280.97
2022-07-26T21:42:06.732Z,98280.97
2022-07-26T21:44:33.806Z,98277.28
2022-07-26T21:47:00.848Z,98287.22
2022-07-26T21:49:27.993Z,98280.06
2022-07-26T21:51:55.140Z,98284.78
2022-07-26T21:54:22.176Z,98281.47
2022-07-26T21:56:49.272Z,98282.94
2022-07-26T21:59:16.390Z,98276.38
2022-07-26T22:01:43.531Z,98273.25
2022-07-26T22:04:18.546Z,98270.00
2022-07-26T22:06:45.626Z,98270.59
2022-07-26T22:09:13.896Z,98276.47
2022-07-26T22:11:43.223Z,98268.97
2022-07-26T22:14:12.510Z,98278.06
2022-07-26T22:16:40.992Z,98269.91
2022-07-26T22:19:08.315Z,98283.94
2022-07-26T22:21:35.684Z,98281.19
2022-07-26T22:24:02.760Z,98283.94
2022-07-26T22:26:31.410Z,98290.31
2022-07-26T22:28:59.139Z,98276.75
2022-07-26T22:31:26.452Z,98276.75
2022-07-26T22:33:53.643Z,98289.50
2022-07-26T22:36:20.810Z,98268.75
2022-07-26T22:38:47.888Z,98284.53
2022-07-26T22:41:15.309Z,98276.56
2022-07-26T22:43:42.373Z,98283.22
2022-07-26T22:46:09.555Z,98284.34
2022-07-26T22:48:38.496Z,98274.72
2022-07-26T22:51:06.065Z,98281.91
2022-07-26T22:53:33.094Z,98287.44
2022-07-26T22:56:00.187Z,98281.91
2022-07-26T22:58:27.224Z,98278.31
2022-07-26T23:00:54.569Z,98284.13
2022-07-26T23:03:22.159Z,98277.78
2022-07-26T23:05:50.112Z,98287.72
2022-07-26T23:11:05.208Z,98283.84
2022-07-26T23:13:32.531Z,98281.06
2022-07-26T23:16:01.167Z,98274.72
2022-07-26T23:18:29.238Z,98267.81
2022-07-26T23:20:56.299Z,98275.31
2022-07-26T23:23:23.255Z,98276.44
2022-07-26T23:25:54.939Z,98273.97
2022-07-26T23:28:36.029Z,98272.66
2022-07-26T23:31:11.878Z,98272.66
2022-07-26T23:33:52.931Z,98272.97
2022-07-26T23:36:28.201Z,98279.63
2022-07-26T23:38:58.699Z,98276.84
2022-07-26T23:41:26.157Z,98285.16
2022-07-26T23:43:54.370Z,98278.19
2022-07-26T23:46:21.633Z,98282.59
2022-07-26T23:48:48.808Z,98283.75
2022-07-26T23:51:15.938Z,98285.69
2022-07-26T23:53:43.121Z,98284.03
2022-07-26T23:56:10.189Z,98286.81
2022-07-26T23:58:37.868Z,98281.25
